createdAt,value
2023-04-11T00:00:48.155Z,19.93
2023-04-11T00:03:17.047Z,20.13
2023-04-11T00:05:46.122Z,22.57
2023-04-11T00:08:14.462Z,20.87
2023-04-11T00:10:44.992Z,21.53
2023-04-11T00:13:15.480Z,20.00
2023-04-11T00:15:44.181Z,19.93
2023-04-11T00:18:12.749Z,20.30
2023-04-11T00:20:41.408Z,20.43
2023-04-11T00:23:09.871Z,20.63
2023-04-11T00:25:38.648Z,19.80
2023-04-11T00:28:07.140Z,21.77
2023-04-11T00:30:37.594Z,21.20
2023-04-11T00:33:06.101Z,20.90
2023-04-11T00:35:37.804Z,21.83
2023-04-11T00:38:06.369Z,21.57
2023-04-11T00:40:34.966Z,20.70
2023-04-11T00:43:03.393Z,22.83
2023-04-11T00:45:32.127Z,22.03
2023-04-11T00:48:02.116Z,22.67
2023-04-11T00:50:30.856Z,23.10
2023-04-11T00:52:59.915Z,21.43
2023-04-11T00:55:29.372Z,22.37
2023-04-11T00:57:58.295Z,21.73
2023-04-11T01:00:28.020Z,21.50
2023-04-11T01:02:57.790Z,22.97
2023-04-11T01:05:28.448Z,21.77
2023-04-11T01:07:57.487Z,20.60
2023-04-11T01:10:30.686Z,20.73
2023-04-11T01:13:01.364Z,19.67
2023-04-11T01:15:30.467Z,21.77
2023-04-11T01:18:02.354Z,19.67
2023-04-11T01:20:33.310Z,19.30
2023-04-11T01:23:03.655Z,20.97
2023-04-11T01:25:34.173Z,22.97
2023-04-11T01:28:03.186Z,21.67
2023-04-11T01:30:31.935Z,21.13
2023-04-11T01:33:00.547Z,22.17
2023-04-11T01:35:29.470Z,21.03
2023-04-11T01:37:57.978Z,22.07
2023-04-11T01:40:27.909Z,20.40
2023-04-11T01:42:57.711Z,21.13
2023-04-11T01:45:27.536Z,20.00
2023-04-11T01:47:57.514Z,21.10
2023-04-11T01:50:26.404Z,20.97
2023-04-11T01:52:55.642Z,21.37
2023-04-11T01:55:24.612Z,20.83
2023-04-11T01:57:52.986Z,22.30
2023-04-11T02:00:24.071Z,23.30
2023-04-11T02:02:53.042Z,21.23
2023-04-11T02:05:22.206Z,21.90
2023-04-11T02:07:50.487Z,22.93
2023-04-11T02:10:20.336Z,21.87
2023-04-11T02:12:48.684Z,22.87
2023-04-11T02:15:17.441Z,23.97
2023-04-11T02:17:47.210Z,26.00
2023-04-11T02:20:16.817Z,25.60
2023-04-11T02:22:45.254Z,25.20
2023-04-11T02:25:14.252Z,25.00
2023-04-11T02:27:42.661Z,24.00
2023-04-11T02:30:11.955Z,22.17
2023-04-11T02:32:40.419Z,25.87
2023-04-11T02:35:10.856Z,26.60
2023-04-11T02:37:42.311Z,27.03
2023-04-11T02:40:11.836Z,24.63
2023-04-11T02:42:43.231Z,25.13
2023-04-11T02:45:12.969Z,24.00
2023-04-11T02:47:41.508Z,22.30
2023-04-11T02:50:12.831Z,23.23
2023-04-11T02:52:49.212Z,23.50
2023-04-11T02:55:23.208Z,22.03
2023-04-11T02:57:52.724Z,23.17
2023-04-11T03:00:22.768Z,23.17
2023-04-11T03:02:59.131Z,22.73
2023-04-11T03:05:30.455Z,22.73
2023-04-11T03:07:59.010Z,23.37
2023-04-11T03:10:29.994Z,24.20
2023-04-11T03:12:59.817Z,22.23
2023-04-11T03:15:28.612Z,19.73
2023-04-11T03:17:56.946Z,24.00
2023-04-11T03:20:25.672Z,24.43
2023-04-11T03:22:56.559Z,22.87
2023-04-11T03:25:28.177Z,21.70
2023-04-11T03:27:57.229Z,22.13
2023-04-11T03:30:26.089Z,21.20
2023-04-11T03:32:54.622Z,22.37
2023-04-11T03:35:23.509Z,24.23
2023-04-11T03:37:52.437Z,22.20
2023-04-11T03:40:22.438Z,22.13
2023-04-11T03:42:57.416Z,22.70
2023-04-11T03:45:30.014Z,21.13
2023-04-11T03:48:00.871Z,22.23
2023-04-11T03:50:38.901Z,22.67
2023-04-11T03:53:07.490Z,20.67
2023-04-11T03:55:37.724Z,21.83
2023-04-11T03:58:07.763Z,25.60
2023-04-11T04:00:37.428Z,22.50
2023-04-11T04:03:10.178Z,22.80
2023-04-11T04:05:41.697Z,23.37
2023-04-11T04:08:11.669Z,21.03
2023-04-11T04:10:50.737Z,20.10
2023-04-11T04:13:19.376Z,22.43
2023-04-11T04:15:54.777Z,21.93
2023-04-11T04:18:26.888Z,22.23
2023-04-11T04:20:56.062Z,23.90
2023-04-11T04:23:26.894Z,22.50
2023-04-11T04:26:24.792Z,22.20
2023-04-11T04:29:06.239Z,20.93
2023-04-11T04:31:50.631Z,22.80
2023-04-11T04:34:22.043Z,23.63
2023-04-11T04:36:56.482Z,22.77
2023-04-11T04:39:34.098Z,21.83
2023-04-11T04:42:05.307Z,25.63
2023-04-11T04:44:39.138Z,21.77
2023-04-11T04:47:16.146Z,21.43
2023-04-11T04:49:44.663Z,22.13
2023-04-11T04:52:14.225Z,26.43
2023-04-11T04:54:43.085Z,24.37
2023-04-11T04:57:13.265Z,26.27
2023-04-11T04:59:42.078Z,22.80
2023-04-11T05:02:14.713Z,22.20
2023-04-11T05:04:44.823Z,23.77
2023-04-11T05:07:14.827Z,26.97
2023-04-11T05:09:43.947Z,26.20
2023-04-11T05:12:26.328Z,24.63
2023-04-11T05:14:58.482Z,24.97
2023-04-11T05:17:31.182Z,23.30
2023-04-11T05:19:59.894Z,23.83
2023-04-11T05:22:29.781Z,23.40
2023-04-11T05:24:58.827Z,22.07
2023-04-11T05:27:29.543Z,20.37
2023-04-11T05:29:59.548Z,22.43
2023-04-11T05:32:28.404Z,20.93
2023-04-11T05:34:59.264Z,21.43
2023-04-11T05:37:51.410Z,21.40
2023-04-11T05:40:19.907Z,24.30
2023-04-11T05:42:52.239Z,24.63
2023-04-11T05:45:20.782Z,23.03
2023-04-11T05:47:50.634Z,25.27
2023-04-11T05:50:19.044Z,22.13
2023-04-11T05:52:47.804Z,23.03
2023-04-11T05:55:17.106Z,23.17
2023-04-11T05:57:45.655Z,24.23
2023-04-11T06:00:17.256Z,21.00
2023-04-11T06:02:46.373Z,25.63
2023-04-11T06:05:16.808Z,19.93
2023-04-11T06:07:46.453Z,23.23
2023-04-11T06:10:15.035Z,22.70
2023-04-11T06:12:44.001Z,20.43
2023-04-11T06:15:13.911Z,19.90
2023-04-11T06:17:44.988Z,21.20
2023-04-11T06:20:13.586Z,20.33
2023-04-11T06:22:42.170Z,21.10
2023-04-11T06:25:11.203Z,20.70
2023-04-11T06:27:39.792Z,21.47
2023-04-11T06:30:09.534Z,20.87
2023-04-11T06:32:38.206Z,21.27
2023-04-11T06:35:08.890Z,19.37
2023-04-11T06:37:37.463Z,20.30
2023-04-11T06:40:06.904Z,20.43
2023-04-11T06:42:35.968Z,19.50
2023-04-11T06:45:06.232Z,20.63
2023-04-11T06:47:35.213Z,20.13
2023-04-11T06:50:04.009Z,20.43
2023-04-11T06:52:33.994Z,19.37
2023-04-11T06:55:02.250Z,20.20
2023-04-11T06:57:30.911Z,19.17
2023-04-11T06:59:59.260Z,19.50
2023-04-11T07:02:28.057Z,19.03
2023-04-11T07:04:57.020Z,18.37
2023-04-11T07:07:25.986Z,19.47
2023-04-11T07:09:55.710Z,18.73
2023-04-11T07:12:24.536Z,20.00
2023-04-11T07:14:52.898Z,22.67
2023-04-11T07:17:21.370Z,19.57
2023-04-11T07:19:49.641Z,20.50
2023-04-11T07:22:18.531Z,18.93
2023-04-11T07:24:47.177Z,19.37
2023-04-11T07:27:17.662Z,18.27
2023-04-11T07:29:46.331Z,18.80
2023-04-11T07:32:15.355Z,18.60
2023-04-11T07:34:43.694Z,17.77
2023-04-11T07:37:12.540Z,17.87
2023-04-11T07:39:41.215Z,18.43
2023-04-11T07:42:11.024Z,18.67
2023-04-11T07:44:41.161Z,16.93
2023-04-11T07:47:09.857Z,17.07
2023-04-11T07:49:38.225Z,17.70
2023-04-11T07:52:07.135Z,18.00
2023-04-11T07:54:36.990Z,19.57
2023-04-11T07:57:05.594Z,18.93
2023-04-11T07:59:34.073Z,18.10
2023-04-11T08:02:04.904Z,19.97
2023-04-11T08:04:34.481Z,19.27
2023-04-11T08:07:03.788Z,17.87
2023-04-11T08:09:32.429Z,18.63
2023-04-11T08:12:01.707Z,20.33
2023-04-11T08:14:30.269Z,19.03
2023-04-11T08:17:00.212Z,18.27
2023-04-11T08:19:31.182Z,18.03
2023-04-11T08:21:59.793Z,18.35
2023-04-11T08:24:28.125Z,16.98
2023-04-11T08:26:56.648Z,15.30
2023-04-11T08:29:24.900Z,15.60
2023-04-11T08:31:53.454Z,15.10
2023-04-11T08:34:21.826Z,14.53
2023-04-11T08:36:51.852Z,12.85
2023-04-11T08:39:20.224Z,12.43
2023-04-11T08:41:48.935Z,13.57
2023-04-11T08:44:17.444Z,14.30
2023-04-11T08:46:46.797Z,12.10
2023-04-11T08:49:15.560Z,14.50
2023-04-11T08:51:45.305Z,11.65
2023-04-11T08:54:16.688Z,13.55
2023-04-11T08:56:45.581Z,12.68
2023-04-11T08:59:13.988Z,12.17
2023-04-11T09:01:42.813Z,13.18
2023-04-11T09:04:11.621Z,12.75
2023-04-11T09:06:42.689Z,13.02
2023-04-11T09:09:31.403Z,14.20
2023-04-11T09:11:59.976Z,13.70
2023-04-11T09:14:28.526Z,13.50
2023-04-11T09:17:00.772Z,13.55
2023-04-11T09:19:30.857Z,12.65
2023-04-11T09:22:01.269Z,13.30
2023-04-11T09:24:32.788Z,13.27
2023-04-11T09:27:10.941Z,14.93
2023-04-11T09:29:43.163Z,13.98
2023-04-11T09:32:30.177Z,15.45
2023-04-11T09:35:12.548Z,14.43
2023-04-11T09:37:46.898Z,15.80
2023-04-11T09:40:19.653Z,13.35
2023-04-11T09:42:50.322Z,14.70
2023-04-11T09:45:21.053Z,15.40
2023-04-11T09:47:51.437Z,14.50
2023-04-11T09:50:20.569Z,13.82
2023-04-11T09:52:49.598Z,15.30
2023-04-11T09:55:20.629Z,16.13
2023-04-11T09:57:51.950Z,14.18
2023-04-11T10:00:22.446Z,14.82
2023-04-11T10:02:53.025Z,15.50
2023-04-11T10:05:26.066Z,14.90
2023-04-11T10:08:00.808Z,13.98
2023-04-11T10:10:30.696Z,14.20
2023-04-11T10:12:59.567Z,14.18
2023-04-11T10:15:28.011Z,13.20
2023-04-11T10:18:10.185Z,12.90
2023-04-11T10:20:43.866Z,14.40
2023-04-11T10:23:13.654Z,14.23
2023-04-11T10:25:55.146Z,13.35
2023-04-11T10:28:38.822Z,14.57
2023-04-11T10:31:09.953Z,13.65
2023-04-11T10:33:39.730Z,13.85
2023-04-11T10:36:11.295Z,12.95
2023-04-11T10:38:49.963Z,11.73
2023-04-11T10:41:28.552Z,12.55
2023-04-11T10:44:18.354Z,11.52
2023-04-11T10:46:50.408Z,11.90
2023-04-11T10:49:36.431Z,12.05
2023-04-11T10:52:24.049Z,12.82
2023-04-11T10:54:54.203Z,11.20
2023-04-11T10:57:25.056Z,13.13
2023-04-11T11:00:00.993Z,11.23
2023-04-11T11:02:40.116Z,12.18
2023-04-11T11:05:25.088Z,11.73
2023-04-11T11:07:54.849Z,11.68
2023-04-11T11:10:43.705Z,13.38
2023-04-11T11:13:17.362Z,11.43
2023-04-11T11:15:50.203Z,12.45
2023-04-11T11:18:19.512Z,11.73
2023-04-11T11:20:48.502Z,13.60
2023-04-11T11:23:17.938Z,12.90
2023-04-11T11:25:54.823Z,11.45
2023-04-11T11:28:25.039Z,12.38
2023-04-11T11:30:55.669Z,11.63
2023-04-11T11:33:26.397Z,10.57
2023-04-11T11:35:58.018Z,10.88
2023-04-11T11:38:28.160Z,12.63
2023-04-11T11:40:57.710Z,11.85
2023-04-11T11:43:28.439Z,10.88
2023-04-11T11:46:15.106Z,12.50
2023-04-11T11:48:44.857Z,11.40
2023-04-11T11:51:14.173Z,10.70
2023-04-11T11:53:42.654Z,10.80
2023-04-11T11:56:15.846Z,10.95
2023-04-11T11:58:46.114Z,11.07
2023-04-11T12:01:17.113Z,8.85
2023-04-11T12:03:48.358Z,9.75
2023-04-11T12:06:17.376Z,8.57
2023-04-11T12:08:50.278Z,9.27
2023-04-11T12:11:19.428Z,8.80
2023-04-11T12:13:53.912Z,8.30
2023-04-11T12:16:25.742Z,8.90
2023-04-11T12:18:54.219Z,8.90
2023-04-11T12:21:22.792Z,7.53
2023-04-11T12:23:51.154Z,8.85
2023-04-11T12:26:21.300Z,8.82
2023-04-11T12:28:51.349Z,9.77
2023-04-11T12:31:21.372Z,7.97
2023-04-11T12:33:49.705Z,9.65
2023-04-11T12:36:18.486Z,10.85
2023-04-11T12:38:47.051Z,8.75
2023-04-11T12:41:31.486Z,10.63
2023-04-11T12:44:03.970Z,9.43
2023-04-11T12:46:33.581Z,10.07
2023-04-11T12:49:02.060Z,10.93
2023-04-11T12:51:31.319Z,10.30
2023-04-11T12:53:59.844Z,10.93
2023-04-11T12:56:28.483Z,11.82
2023-04-11T12:58:57.168Z,11.35
2023-04-11T13:01:27.645Z,11.50
2023-04-11T13:03:56.212Z,11.13
2023-04-11T13:06:25.069Z,9.97
2023-04-11T13:08:53.364Z,9.18
2023-04-11T13:11:22.008Z,8.57
2023-04-11T13:13:50.503Z,7.80
2023-04-11T13:16:19.182Z,8.67
2023-04-11T13:18:49.247Z,8.17
2023-04-11T13:21:18.183Z,7.70
2023-04-11T13:23:46.772Z,6.90
2023-04-11T13:26:15.333Z,6.63
2023-04-11T13:28:43.659Z,6.77
2023-04-11T13:31:12.175Z,7.30
2023-04-11T13:33:40.901Z,7.50
2023-04-11T13:36:12.275Z,6.97
2023-04-11T13:38:40.590Z,7.40
2023-04-11T13:41:09.636Z,7.80
2023-04-11T13:43:37.980Z,7.53
2023-04-11T13:46:06.945Z,5.87
2023-04-11T13:48:36.710Z,4.57
2023-04-11T13:51:05.703Z,5.40
2023-04-11T13:53:35.409Z,4.80
2023-04-11T13:56:04.137Z,4.70
2023-04-11T13:58:32.762Z,5.37
2023-04-11T14:01:01.431Z,4.73
2023-04-11T14:03:33.602Z,4.73
2023-04-11T14:06:03.451Z,5.30
2023-04-11T14:08:31.808Z,5.43
2023-04-11T14:11:01.908Z,5.67
2023-04-11T14:13:30.471Z,5.90
2023-04-11T14:16:07.926Z,5.57
2023-04-11T14:18:37.763Z,6.63
2023-04-11T14:21:08.042Z,5.87
2023-04-11T14:23:36.824Z,5.40
2023-04-11T14:26:07.481Z,4.90
2023-04-11T14:28:36.031Z,5.83
2023-04-11T14:31:04.784Z,4.97
2023-04-11T14:33:33.482Z,5.53
2023-04-11T14:36:02.203Z,5.20
2023-04-11T14:38:30.761Z,5.10
2023-04-11T14:40:59.248Z,5.00
2023-04-11T14:43:28.955Z,5.93
2023-04-11T14:45:58.419Z,6.00
2023-04-11T14:48:28.800Z,5.70
2023-04-11T14:50:57.550Z,5.27
2023-04-11T14:53:26.606Z,5.67
2023-04-11T14:55:55.602Z,5.37
2023-04-11T14:58:23.860Z,6.30
2023-04-11T15:00:53.797Z,6.00
2023-04-11T15:03:22.455Z,6.00
2023-04-11T15:05:51.550Z,5.43
2023-04-11T15:08:19.953Z,5.97
2023-04-11T15:10:53.823Z,73.87
2023-04-11T15:13:22.972Z,64.83
2023-04-11T15:15:53.397Z,71.07
2023-04-11T15:18:25.156Z,72.67
2023-04-11T15:20:54.434Z,74.17
2023-04-11T15:23:23.012Z,70.57
2023-04-11T15:25:56.017Z,71.73
2023-04-11T15:28:25.527Z,71.17
2023-04-11T15:30:55.525Z,70.70
2023-04-11T15:33:25.994Z,68.83
2023-04-11T15:35:55.399Z,69.77
2023-04-11T15:38:24.940Z,72.70
2023-04-11T15:40:54.796Z,77.33
2023-04-11T15:43:23.709Z,65.97
2023-04-11T15:45:53.303Z,49.63
2023-04-11T15:48:21.900Z,38.70
2023-04-11T15:50:51.922Z,12.50
2023-04-11T15:53:20.601Z,8.27
2023-04-11T15:55:49.242Z,8.50
2023-04-11T15:58:17.470Z,9.07
2023-04-11T16:00:47.024Z,9.07
2023-04-11T16:03:16.583Z,9.10
2023-04-11T16:05:45.727Z,11.37
2023-04-11T16:08:15.862Z,10.97
2023-04-11T16:10:44.500Z,11.43
2023-04-11T16:13:12.763Z,16.03
2023-04-11T16:15:41.497Z,21.27
2023-04-11T16:18:10.086Z,20.73
2023-04-11T16:20:39.142Z,23.10
2023-04-11T16:23:07.406Z,34.47
2023-04-11T16:25:38.397Z,47.87
2023-04-11T16:28:06.955Z,45.80
2023-04-11T16:30:35.867Z,58.77
2023-04-11T16:33:04.224Z,45.80
2023-04-11T16:35:33.013Z,41.17
2023-04-11T16:38:01.743Z,53.93
2023-04-11T16:40:31.756Z,61.70
2023-04-11T16:43:01.514Z,75.40
2023-04-11T16:45:30.361Z,78.20
2023-04-11T16:47:59.133Z,75.80
2023-04-11T16:50:27.853Z,73.97
2023-04-11T16:52:56.457Z,78.43
2023-04-11T16:55:25.260Z,75.87
2023-04-11T16:57:53.719Z,74.47
2023-04-11T17:00:24.635Z,74.83
2023-04-11T17:02:53.131Z,69.67
2023-04-11T17:05:23.905Z,66.63
2023-04-11T17:07:52.423Z,68.97
2023-04-11T17:10:22.154Z,71.33
2023-04-11T17:12:50.795Z,65.97
2023-04-11T17:15:19.527Z,68.57
2023-04-11T17:17:49.281Z,67.73
2023-04-11T17:20:18.004Z,65.63
2023-04-11T17:22:46.947Z,70.57
2023-04-11T17:25:15.528Z,66.77
2023-04-11T17:27:43.872Z,67.27
2023-04-11T17:30:12.982Z,71.87
2023-04-11T17:32:41.630Z,78.17
2023-04-11T17:35:12.877Z,75.17
2023-04-11T17:37:41.210Z,73.40
2023-04-11T17:40:12.947Z,74.63
2023-04-11T17:42:42.064Z,57.77
2023-04-11T17:45:17.533Z,43.53
2023-04-11T17:47:48.310Z,13.10
2023-04-11T17:50:20.061Z,8.20
2023-04-11T17:52:48.896Z,8.03
2023-04-11T17:55:18.767Z,7.43
2023-04-11T17:57:49.032Z,7.27
2023-04-11T18:00:22.879Z,5.40
2023-04-11T18:02:52.925Z,5.60
2023-04-11T18:05:25.645Z,4.57
2023-04-11T18:07:56.587Z,6.70
2023-04-11T18:10:26.353Z,5.90
2023-04-11T18:12:57.464Z,5.90
2023-04-11T18:15:26.892Z,7.23
2023-04-11T18:17:55.561Z,10.63
2023-04-11T18:20:25.500Z,17.10
2023-04-11T18:22:56.182Z,10.00
2023-04-11T18:25:25.311Z,8.50
2023-04-11T18:27:54.339Z,9.63
2023-04-11T18:30:22.719Z,7.87
2023-04-11T18:32:53.633Z,7.33
2023-04-11T18:35:22.533Z,8.50
2023-04-11T18:37:53.354Z,6.73
2023-04-11T18:40:21.833Z,7.30
2023-04-11T18:42:52.946Z,8.83
2023-04-11T18:45:22.396Z,6.17
2023-04-11T18:47:51.428Z,8.50
2023-04-11T18:50:19.997Z,8.20
2023-04-11T18:52:52.836Z,7.07
2023-04-11T18:55:24.862Z,7.57
2023-04-11T18:57:57.000Z,16.23
2023-04-11T19:00:26.647Z,9.40
2023-04-11T19:02:55.462Z,14.47
2023-04-11T19:05:25.465Z,33.27
2023-04-11T19:07:54.480Z,8.40
2023-04-11T19:10:24.321Z,10.87
2023-04-11T19:12:53.012Z,11.63
2023-04-11T19:15:21.438Z,8.17
2023-04-11T19:17:50.538Z,8.43
2023-04-11T19:20:19.279Z,9.17
2023-04-11T19:22:48.017Z,9.33
2023-04-11T19:25:16.620Z,8.70
2023-04-11T19:27:47.146Z,9.20
2023-04-11T19:30:15.765Z,7.37
2023-04-11T19:32:47.281Z,14.20
2023-04-11T19:35:16.087Z,9.23
2023-04-11T19:37:44.754Z,13.00
2023-04-11T19:40:13.944Z,9.27
2023-04-11T19:42:43.330Z,13.80
2023-04-11T19:45:13.436Z,9.90
2023-04-11T19:47:43.193Z,9.20
2023-04-11T19:50:13.766Z,11.13
2023-04-11T19:52:43.660Z,10.40
2023-04-11T19:55:12.893Z,7.47
2023-04-11T19:57:43.627Z,10.30
2023-04-11T20:00:16.324Z,25.53
2023-04-11T20:02:46.983Z,29.03
2023-04-11T20:05:17.135Z,31.50
2023-04-11T20:07:46.665Z,28.73
2023-04-11T20:10:16.644Z,23.37
2023-04-11T20:12:45.548Z,9.17
2023-04-11T20:15:15.822Z,9.47
2023-04-11T20:17:46.124Z,17.37
2023-04-11T20:20:15.611Z,23.67
2023-04-11T20:22:45.761Z,42.53
2023-04-11T20:25:14.178Z,26.93
2023-04-11T20:27:44.234Z,9.30
2023-04-11T20:30:14.149Z,12.23
2023-04-11T20:32:45.662Z,8.20
2023-04-11T20:35:14.217Z,7.53
2023-04-11T20:37:43.947Z,12.20
2023-04-11T20:40:14.161Z,10.00
2023-04-11T20:42:45.419Z,8.53
2023-04-11T20:45:15.705Z,39.47
2023-04-11T20:47:47.690Z,21.53
2023-04-11T20:50:19.096Z,9.60
2023-04-11T20:52:50.633Z,8.77
2023-04-11T20:55:20.688Z,34.17
2023-04-11T20:57:49.246Z,10.67
2023-04-11T21:00:18.787Z,8.70
2023-04-11T21:02:51.583Z,28.67
2023-04-11T21:05:22.121Z,35.10
2023-04-11T21:07:54.090Z,34.20
2023-04-11T21:10:22.488Z,13.73
2023-04-11T21:12:53.748Z,28.43
2023-04-11T21:15:22.763Z,37.83
2023-04-11T21:17:52.735Z,37.93
2023-04-11T21:20:22.537Z,46.23
2023-04-11T21:22:53.824Z,30.67
2023-04-11T21:25:22.831Z,30.80
2023-04-11T21:27:51.583Z,8.07
2023-04-11T21:30:19.973Z,24.47
2023-04-11T21:32:48.642Z,28.83
2023-04-11T21:35:18.548Z,32.10
2023-04-11T21:37:49.107Z,28.03
2023-04-11T21:40:17.961Z,40.67
2023-04-11T21:42:46.435Z,38.37
2023-04-11T21:45:14.728Z,45.87
2023-04-11T21:47:43.584Z,51.27
2023-04-11T21:50:12.802Z,56.23
2023-04-11T21:52:43.427Z,51.17
2023-04-11T21:55:12.514Z,38.20
2023-04-11T21:57:41.636Z,24.03
2023-04-11T22:00:11.884Z,39.87
2023-04-11T22:02:41.017Z,11.07
2023-04-11T22:05:11.087Z,33.00
2023-04-11T22:07:47.116Z,42.70
2023-04-11T22:10:23.603Z,23.13
2023-04-11T23:33:03.546Z,38.53
2023-04-11T23:35:34.082Z,45.43
2023-04-11T23:38:03.080Z,42.37
2023-04-11T23:40:33.531Z,42.43
2023-04-11T23:43:01.916Z,55.17
2023-04-11T23:45:30.789Z,49.00
2023-04-11T23:47:59.391Z,63.73
2023-04-11T23:50:29.244Z,50.23
2023-04-11T23:52:58.088Z,49.93
2023-04-11T23:55:26.672Z,49.77
2023-04-11T23:57:55.298Z,49.97
